createdAt,value
2017-10-13T15:08:48.227Z,24.77
2017-10-13T16:01:38.174Z,20.78
2017-10-13T16:04:05.192Z,20.19
2017-10-13T16:06:32.231Z,19.79
2017-10-13T16:08:59.596Z,19.27
2017-10-13T16:11:26.622Z,18.96
2017-10-13T16:13:53.619Z,18.71
2017-10-13T16:16:20.653Z,18.58
2017-10-13T16:18:47.736Z,18.45
2017-10-13T16:21:14.700Z,18.35
2017-10-13T16:23:41.900Z,18.29
2017-10-13T16:26:08.879Z,18.14
2017-10-13T16:28:35.906Z,17.97
2017-10-13T16:31:02.957Z,17.77
2017-10-13T16:33:29.991Z,17.56
2017-10-13T16:35:56.970Z,17.56
2017-10-13T16:38:24.035Z,17.48
2017-10-13T16:40:51.002Z,17.42
2017-10-13T16:43:18.041Z,17.21
2017-10-13T16:45:45.311Z,17.17
2017-10-13T16:48:12.289Z,17.14
2017-10-13T16:50:39.287Z,17.03
2017-10-13T16:53:06.437Z,17.11
2017-10-13T16:55:33.605Z,17.07
2017-10-13T16:58:00.870Z,16.90
2017-10-13T17:00:27.904Z,16.77
2017-10-13T17:02:54.890Z,16.63
2017-10-13T17:05:21.957Z,16.52
2017-10-13T17:07:49.315Z,16.53
2017-10-13T17:10:16.383Z,16.39
2017-10-13T17:51:53.778Z,25.13
2017-10-13T17:54:21.281Z,24.74
2017-10-13T18:34:19.923Z,24.03
2017-10-13T18:36:47.391Z,21.11
2017-10-13T18:39:14.811Z,19.10
2017-10-13T18:41:42.695Z,17.84
2017-10-13T18:44:10.128Z,16.96
2017-10-13T18:46:37.545Z,16.30
2017-10-13T18:49:05.004Z,15.77
2017-10-13T18:51:32.447Z,15.38
2017-10-13T18:53:59.986Z,15.10
2017-10-13T18:56:27.889Z,14.86
2017-10-13T18:58:55.318Z,14.60
2017-10-13T19:01:22.784Z,14.36
2017-10-13T19:03:50.251Z,14.18
2017-10-13T19:06:17.668Z,14.04
2017-10-13T19:08:45.076Z,13.90
2017-10-13T19:11:12.540Z,13.80
2017-10-13T19:13:39.962Z,13.73
2017-10-13T19:16:07.443Z,13.67
2017-10-13T19:18:34.919Z,13.60
2017-10-13T19:21:02.347Z,13.54
2017-10-13T19:23:29.763Z,13.49
2017-10-13T19:25:57.338Z,13.45
2017-10-13T19:28:24.798Z,13.42
2017-10-13T19:30:52.306Z,13.38
2017-10-13T19:33:19.768Z,13.34
2017-10-13T19:35:47.195Z,13.31
2017-10-13T19:38:14.697Z,13.28
2017-10-13T19:40:42.295Z,13.25
2017-10-13T19:43:09.728Z,13.23
2017-10-13T19:45:37.899Z,13.20
2017-10-13T19:48:05.605Z,13.15
2017-10-13T19:50:33.210Z,13.09
2017-10-13T19:53:00.629Z,13.03
2017-10-13T19:55:28.403Z,13.02
2017-10-13T19:57:55.897Z,13.01
2017-10-13T20:00:23.410Z,13.00
2017-10-13T20:02:50.987Z,12.98
2017-10-13T20:05:18.486Z,12.93
2017-10-13T20:07:45.993Z,12.91
2017-10-13T20:10:13.852Z,12.89
2017-10-13T20:12:41.378Z,12.85
2017-10-13T20:15:08.818Z,12.81
2017-10-13T20:17:36.423Z,12.76
2017-10-13T20:20:03.848Z,12.74
2017-10-13T20:22:31.362Z,12.72
2017-10-13T20:24:59.411Z,12.71
2017-10-13T20:27:26.850Z,12.70
2017-10-13T20:29:54.418Z,12.67
2017-10-13T20:32:21.906Z,12.60
2017-10-13T20:34:49.318Z,12.54
2017-10-13T20:37:17.259Z,12.52
2017-10-13T20:39:44.780Z,12.48
2017-10-13T20:42:12.210Z,12.44
2017-10-13T20:44:39.740Z,12.40
2017-10-13T20:47:07.227Z,12.32
2017-10-13T20:49:34.710Z,12.27
2017-10-13T20:52:02.155Z,12.23
2017-10-13T20:54:29.642Z,12.20
2017-10-13T20:56:57.057Z,12.17
2017-10-13T20:59:24.516Z,12.13
2017-10-13T21:01:52.100Z,12.10
2017-10-13T21:04:19.523Z,12.06
2017-10-13T21:06:46.949Z,12.03
2017-10-13T21:09:14.419Z,12.01
2017-10-13T21:11:41.851Z,11.99
2017-10-13T21:14:09.264Z,11.98
2017-10-13T21:16:36.723Z,11.95
2017-10-13T21:19:04.138Z,11.94
2017-10-13T21:21:31.561Z,11.93
2017-10-13T21:23:59.395Z,11.93
2017-10-13T21:26:26.841Z,11.88
2017-10-13T21:28:54.338Z,11.80
2017-10-13T21:31:21.806Z,11.77
2017-10-13T21:33:49.365Z,11.72
2017-10-13T21:36:18.219Z,11.70
2017-10-13T21:38:46.130Z,11.64
2017-10-13T21:41:13.555Z,11.60
2017-10-13T21:43:40.976Z,11.63
2017-10-13T21:46:08.540Z,11.65
2017-10-13T21:48:35.971Z,11.61
2017-10-13T21:51:03.409Z,11.54
2017-10-13T21:53:30.895Z,11.51
2017-10-13T21:55:58.322Z,11.49
2017-10-13T21:58:26.016Z,11.49
2017-10-13T22:00:53.490Z,11.49
2017-10-13T22:03:20.917Z,11.49
2017-10-13T22:05:48.395Z,11.46
2017-10-13T22:08:15.902Z,11.46
2017-10-13T22:10:43.349Z,11.44
2017-10-13T22:13:10.786Z,11.42
2017-10-13T22:15:38.458Z,11.43
2017-10-13T22:18:06.100Z,11.42
2017-10-13T22:20:33.530Z,11.38
2017-10-13T22:23:01.437Z,11.34
2017-10-13T22:25:28.858Z,11.30
2017-10-13T22:27:56.280Z,11.26
2017-10-13T22:30:23.834Z,11.23
2017-10-13T22:32:51.251Z,11.21
2017-10-13T22:35:18.869Z,11.22
2017-10-13T22:37:46.332Z,11.20
2017-10-13T22:40:13.747Z,11.23
2017-10-13T22:42:41.176Z,11.23
2017-10-13T22:45:09.057Z,11.19
2017-10-13T22:47:36.480Z,11.17
2017-10-13T22:50:03.907Z,11.18
2017-10-13T22:52:31.371Z,11.19
2017-10-13T22:54:58.803Z,11.16
2017-10-13T22:57:26.369Z,11.15
2017-10-13T22:59:53.820Z,11.09
2017-10-13T23:02:21.254Z,11.08
2017-10-13T23:04:48.684Z,11.09
2017-10-13T23:07:16.328Z,11.08
2017-10-13T23:09:43.754Z,11.09
2017-10-13T23:12:11.179Z,11.09
2017-10-13T23:14:38.657Z,11.08
2017-10-13T23:17:06.071Z,11.07
2017-10-13T23:19:33.597Z,11.05
2017-10-13T23:22:01.104Z,11.04
2017-10-13T23:24:28.523Z,11.01
2017-10-13T23:26:55.972Z,10.98
2017-10-13T23:29:24.088Z,10.99
2017-10-13T23:31:51.522Z,10.99
2017-10-13T23:34:18.949Z,10.96
2017-10-13T23:36:46.802Z,10.93
2017-10-13T23:39:14.221Z,10.87
2017-10-13T23:41:41.641Z,10.82
2017-10-13T23:44:09.470Z,10.77
2017-10-13T23:46:36.888Z,10.74
2017-10-13T23:49:04.313Z,10.69
2017-10-13T23:51:31.772Z,10.69
2017-10-13T23:53:59.336Z,10.69
2017-10-13T23:56:26.767Z,10.68
2017-10-13T23:58:54.259Z,10.65
